Time,TemperatureF,DewpointF,PressureIn,WindDirection,WindDirectionDegrees,WindSpeedMPH,WindSpeedGustMPH,Humidity,HourlyPrecipIn,Conditions,Clouds,dailyrainin,SoftwareType,DateUTC
2013-09-19 00:01:00,48.6,44.3,30.06,ENE,67,0.0,0.0,85,0.00,,,0.00,,2013-09-19 04:01:00,
2013-09-19 00:02:00,48.6,44.3,30.06,ENE,67,0.0,0.0,85,0.00,,,0.00,,2013-09-19 04:02:00,
2013-09-19 00:03:00,48.6,44.3,30.06,ENE,67,0.0,0.0,85,0.00,,,0.00,,2013-09-19 04:03:00,
2013-09-19 00:06:00,48.6,44.3,30.06,ENE,67,0.0,0.0,85,0.00,,,0.00,,2013-09-19 04:06:00,
2013-09-19 00:11:00,48.6,44.3,30.06,ENE,67,0.0,0.0,85,0.00,,,0.00,,2013-09-19 04:11:00,
2013-09-19 00:12:00,48.6,44.3,30.06,ENE,67,0.0,0.0,85,0.00,,,0.00,,2013-09-19 04:12:00,
2013-09-19 00:13:00,48.6,44.3,30.06,ENE,67,0.0,0.0,85,0.00,,,0.00,,2013-09-19 04:13:00,
2013-09-19 00:18:00,48.6,44.6,30.06,ENE,67,0.0,0.0,86,0.00,,,0.00,,2013-09-19 04:18:00,
2013-09-19 00:23:00,48.7,44.7,30.06,ENE,67,0.0,0.0,86,0.00,,,0.00,,2013-09-19 04:23:00,
2013-09-19 00:28:00,48.7,44.7,30.06,ENE,67,0.0,0.0,86,0.00,,,0.00,,2013-09-19 04:28:00,
2013-09-19 00:33:00,48.6,44.6,30.06,ENE,67,0.0,0.0,86,0.00,,,0.00,,2013-09-19 04:33:00,
2013-09-19 00:39:00,48.4,44.4,30.06,ENE,67,0.0,0.0,86,0.00,,,0.00,,2013-09-19 04:39:00,
2013-09-19 00:44:00,48.4,44.4,30.06,ENE,67,0.0,0.0,86,0.00,,,0.00,,2013-09-19 04:44:00,
2013-09-19 00:49:00,48.2,44.2,30.06,ENE,67,0.0,0.0,86,0.00,,,0.00,,2013-09-19 04:49:00,
2013-09-19 00:54:00,48.2,44.2,30.06,ENE,67,0.0,0.0,86,0.00,,,0.00,,2013-09-19 04:54:00,
2013-09-19 00:59:00,48.2,44.2,30.06,ENE,67,0.0,0.0,86,0.00,,,0.00,,2013-09-19 04:59:00,
2013-09-19 01:04:00,48.2,44.5,30.06,ENE,67,0.0,0.0,87,0.00,,,0.00,,2013-09-19 05:04:00,
2013-09-19 01:10:00,48.0,44.3,30.06,ENE,67,0.0,0.0,87,0.00,,,0.00,,2013-09-19 05:10:00,
2013-09-19 01:16:00,47.8,44.2,30.06,ENE,67,0.0,0.0,87,0.00,,,0.00,,2013-09-19 05:16:00,
2013-09-19 01:21:00,47.8,44.2,30.06,ENE,67,0.0,0.0,87,0.00,,,0.00,,2013-09-19 05:21:00,
2013-09-19 01:26:00,47.7,44.0,30.06,ENE,67,0.0,0.0,87,0.00,,,0.00,,2013-09-19 05:26:00,
2013-09-19 01:31:00,47.5,43.8,30.06,ENE,67,0.0,0.0,87,0.00,,,0.00,,2013-09-19 05:31:00,
2013-09-19 01:37:00,47.3,43.6,30.06,ENE,67,0.0,0.0,87,0.00,,,0.00,,2013-09-19 05:37:00,
2013-09-19 01:42:00,47.3,43.6,30.06,ENE,67,0.0,0.0,87,0.00,,,0.00,,2013-09-19 05:42:00,
2013-09-19 01:47:00,47.3,43.6,30.06,ENE,67,0.0,0.0,87,0.00,,,0.00,,2013-09-19 05:47:00,
2013-09-19 01:52:00,47.3,43.9,30.06,ENE,67,0.0,0.0,88,0.00,,,0.00,,2013-09-19 05:52:00,
2013-09-19 01:57:00,47.1,43.8,30.06,ENE,67,0.0,0.0,88,0.00,,,0.00,,2013-09-19 05:57:00,
2013-09-19 02:02:00,47.1,43.8,30.06,ENE,67,0.0,0.0,88,0.00,,,0.00,,2013-09-19 06:02:00,
2013-09-19 02:07:00,46.9,43.6,30.06,ENE,67,0.0,0.0,88,0.00,,,0.00,,2013-09-19 06:07:00,
2013-09-19 02:12:00,46.9,43.3,30.06,ENE,67,0.0,0.0,87,0.00,,,0.00,,2013-09-19 06:12:00,
2013-09-19 02:17:00,46.8,43.1,30.06,ENE,67,1.1,2.0,87,0.00,,,0.00,,2013-09-19 06:17:00,
2013-09-19 02:22:00,46.6,42.9,30.06,ENE,67,0.0,0.0,87,0.00,,,0.00,,2013-09-19 06:22:00,
2013-09-19 02:28:00,46.6,42.9,30.06,NW,315,0.0,0.0,87,0.00,,,0.00,,2013-09-19 06:28:00,
2013-09-19 02:33:00,46.4,43.0,30.06,West,270,1.1,0.0,88,0.00,,,0.00,,2013-09-19 06:33:00,
2013-09-19 02:39:00,46.6,43.2,30.03,ENE,67,0.0,0.0,88,0.00,,,0.00,,2013-09-19 06:39:00,
2013-09-19 02:44:00,46.8,43.7,30.03,West,270,0.0,0.0,89,0.00,,,0.00,,2013-09-19 06:44:00,
2013-09-19 02:49:00,46.9,43.9,30.03,ENE,67,0.0,1.1,89,0.00,,,0.00,,2013-09-19 06:49:00,
2013-09-19 02:54:00,47.3,44.5,30.03,WSW,247,0.0,0.0,90,0.00,,,0.00,,2013-09-19 06:54:00,
2013-09-19 02:59:00,47.5,44.7,30.03,West,270,1.1,0.0,90,0.00,,,0.00,,2013-09-19 06:59:00,
2013-09-19 03:04:00,47.3,44.2,30.03,WSW,247,0.0,0.0,89,0.00,,,0.00,,2013-09-19 07:04:00,
2013-09-19 03:10:00,47.3,44.5,30.03,WNW,292,0.0,0.0,90,0.00,,,0.00,,2013-09-19 07:10:00,
2013-09-19 03:15:00,47.3,44.5,30.03,NNE,22,0.0,0.0,90,0.00,,,0.00,,2013-09-19 07:15:00,
2013-09-19 03:20:00,47.1,44.0,30.03,NNE,22,0.0,0.0,89,0.00,,,0.00,,2013-09-19 07:20:00,
2013-09-19 03:25:00,46.9,43.6,30.03,NNE,22,0.0,0.0,88,0.00,,,0.00,,2013-09-19 07:25:00,
2013-09-19 03:30:00,46.6,42.9,30.03,NNE,22,0.0,0.0,87,0.00,,,0.00,,2013-09-19 07:30:00,
2013-09-19 03:35:00,46.2,42.9,30.03,NE,45,1.6,2.2,88,0.00,,,0.00,,2013-09-19 07:35:00,
2013-09-19 03:41:00,46.0,42.7,30.03,ENE,67,1.6,2.9,88,0.00,,,0.00,,2013-09-19 07:41:00,
2013-09-19 03:46:00,45.7,42.3,30.03,ENE,67,1.3,1.6,88,0.00,,,0.00,,2013-09-19 07:46:00,
2013-09-19 03:51:00,45.5,42.2,30.03,ENE,67,1.3,2.0,88,0.00,,,0.00,,2013-09-19 07:51:00,
2013-09-19 03:56:00,45.3,42.0,30.03,ENE,67,1.3,2.5,88,0.00,,,0.00,,2013-09-19 07:56:00,
2013-09-19 04:01:00,45.1,41.8,30.03,ENE,67,1.6,2.9,88,0.00,,,0.00,,2013-09-19 08:01:00,
2013-09-19 04:07:00,45.0,41.6,30.03,ENE,67,2.0,2.0,88,0.00,,,0.00,,2013-09-19 08:07:00,
2013-09-19 04:12:00,44.8,41.7,30.03,ENE,67,1.6,1.6,89,0.00,,,0.00,,2013-09-19 08:12:00,
2013-09-19 04:17:00,44.6,41.6,30.03,ENE,67,1.6,1.6,89,0.00,,,0.00,,2013-09-19 08:17:00,
2013-09-19 04:22:00,44.6,41.6,30.03,ENE,67,2.0,2.0,89,0.00,,,0.00,,2013-09-19 08:22:00,
2013-09-19 04:27:00,44.4,41.7,30.03,ENE,67,1.3,1.6,90,0.00,,,0.00,,2013-09-19 08:27:00,
2013-09-19 04:32:00,44.2,41.5,30.03,ENE,67,1.6,1.6,90,0.00,,,0.00,,2013-09-19 08:32:00,
2013-09-19 04:38:00,44.2,41.8,30.03,ENE,67,2.0,2.0,91,0.00,,,0.00,,2013-09-19 08:38:00,
2013-09-19 04:43:00,44.1,41.6,30.03,ENE,67,2.0,2.5,91,0.00,,,0.00,,2013-09-19 08:43:00,
2013-09-19 04:48:00,44.1,41.6,30.03,ENE,67,2.0,2.0,91,0.00,,,0.00,,2013-09-19 08:48:00,
2013-09-19 04:53:00,44.2,42.1,30.03,ENE,67,1.3,1.6,92,0.00,,,0.00,,2013-09-19 08:53:00,
2013-09-19 04:58:00,44.2,42.1,30.03,ENE,67,1.3,1.6,92,0.00,,,0.00,,2013-09-19 08:58:00,
2013-09-19 05:03:00,44.2,42.1,30.03,ENE,67,1.3,1.3,92,0.00,,,0.00,,2013-09-19 09:03:00,
2013-09-19 05:09:00,44.2,42.3,30.03,ENE,67,1.3,1.6,93,0.00,,,0.00,,2013-09-19 09:09:00,
2013-09-19 05:14:00,44.2,42.3,30.03,ENE,67,1.3,1.6,93,0.00,,,0.00,,2013-09-19 09:14:00,
2013-09-19 05:20:00,44.1,42.2,30.03,ENE,67,1.6,2.0,93,0.00,,,0.00,,2013-09-19 09:20:00,
2013-09-19 05:25:00,43.9,41.7,30.03,ENE,67,2.0,2.0,92,0.00,,,0.00,,2013-09-19 09:25:00,
2013-09-19 05:30:00,43.7,41.5,30.03,ENE,67,2.0,2.5,92,0.00,,,0.00,,2013-09-19 09:30:00,
2013-09-19 05:35:00,43.5,41.4,30.03,ENE,67,1.1,1.1,92,0.00,,,0.00,,2013-09-19 09:35:00,
2013-09-19 05:41:00,43.3,41.2,30.03,NE,45,2.0,2.2,92,0.00,,,0.00,,2013-09-19 09:41:00,
2013-09-19 05:46:00,43.3,41.2,30.03,ENE,67,1.6,2.5,92,0.00,,,0.00,,2013-09-19 09:46:00,
2013-09-19 05:51:00,43.2,41.0,30.03,NE,45,2.2,2.2,92,0.00,,,0.00,,2013-09-19 09:51:00,
2013-09-19 05:56:00,43.0,41.1,30.03,ENE,67,2.0,2.0,93,0.00,,,0.00,,2013-09-19 09:56:00,
2013-09-19 06:01:00,43.0,41.1,30.03,ENE,67,2.0,2.0,93,0.00,,,0.00,,2013-09-19 10:01:00,
2013-09-19 06:06:00,43.0,41.1,30.03,ENE,67,1.6,2.2,93,0.00,,,0.00,,2013-09-19 10:06:00,
2013-09-19 06:11:00,42.8,40.9,30.03,ENE,67,1.3,1.3,93,0.00,,,0.00,,2013-09-19 10:11:00,
2013-09-19 06:16:00,42.8,40.9,30.03,ENE,67,1.6,2.2,93,0.00,,,0.00,,2013-09-19 10:16:00,
2013-09-19 06:22:00,42.8,41.2,30.03,ENE,67,1.6,2.0,94,0.00,,,0.00,,2013-09-19 10:22:00,
2013-09-19 06:28:00,42.6,41.0,30.03,ENE,67,1.3,1.3,94,0.00,,,0.00,,2013-09-19 10:28:00,
2013-09-19 06:33:00,42.4,40.8,30.03,ENE,67,1.3,2.0,94,0.00,,,0.00,,2013-09-19 10:33:00,
2013-09-19 06:39:00,42.4,40.8,30.03,ENE,67,1.6,1.6,94,0.00,,,0.00,,2013-09-19 10:39:00,
2013-09-19 06:44:00,42.4,40.8,30.03,ENE,67,1.1,1.6,94,0.00,,,0.00,,2013-09-19 10:44:00,
2013-09-19 06:50:00,42.3,40.7,30.06,ENE,67,0.0,0.0,94,0.00,,,0.00,,2013-09-19 10:50:00,
2013-09-19 06:55:00,42.3,40.7,30.06,NE,45,1.6,1.6,94,0.00,,,0.00,,2013-09-19 10:55:00,
2013-09-19 07:00:00,42.3,40.7,30.06,NE,45,0.9,1.1,94,0.00,,,0.00,,2013-09-19 11:00:00,
2013-09-19 07:05:00,42.3,40.9,30.06,NE,45,2.0,2.0,95,0.00,,,0.00,,2013-09-19 11:05:00,
2013-09-19 07:11:00,42.4,41.1,30.06,NE,45,0.0,0.0,95,0.00,,,0.00,,2013-09-19 11:11:00,
2013-09-19 07:16:00,42.4,41.1,30.06,NE,45,0.0,0.0,95,0.00,,,0.00,,2013-09-19 11:16:00,
2013-09-19 07:22:00,42.4,41.1,30.06,ENE,67,1.3,1.3,95,0.00,,,0.00,,2013-09-19 11:22:00,
2013-09-19 07:27:00,42.6,41.3,30.06,ENE,67,1.3,2.0,95,0.00,,,0.00,,2013-09-19 11:27:00,
2013-09-19 07:32:00,42.8,41.5,30.06,NE,45,1.1,1.1,95,0.00,,,0.00,,2013-09-19 11:32:00,
2013-09-19 07:38:00,43.0,41.6,30.06,NE,45,0.0,0.0,95,0.00,,,0.00,,2013-09-19 11:38:00,
2013-09-19 07:43:00,43.3,42.0,30.06,NE,45,0.0,0.0,95,0.00,,,0.00,,2013-09-19 11:43:00,
2013-09-19 07:48:00,43.7,42.6,30.06,NE,45,0.0,0.0,96,0.00,,,0.00,,2013-09-19 11:48:00,
2013-09-19 07:53:00,44.1,43.0,30.06,NE,45,0.0,0.0,96,0.00,,,0.00,,2013-09-19 11:53:00,
2013-09-19 07:58:00,44.4,43.4,30.06,NE,45,0.9,1.1,96,0.00,,,0.00,,2013-09-19 11:58:00,
2013-09-19 08:03:00,44.8,43.7,30.06,NE,45,0.0,1.3,96,0.00,,,0.00,,2013-09-19 12:03:00,
2013-09-19 08:09:00,45.3,44.2,30.06,NE,45,0.0,0.0,96,0.00,,,0.00,,2013-09-19 12:09:00,
2013-09-19 08:15:00,45.9,44.8,30.06,NE,45,0.0,0.0,96,0.00,,,0.00,,2013-09-19 12:15:00,
2013-09-19 08:20:00,46.2,45.1,30.06,NE,45,0.0,0.0,96,0.00,,,0.00,,2013-09-19 12:20:00,
2013-09-19 08:25:00,46.8,45.7,30.06,NE,45,0.0,0.0,96,0.00,,,0.00,,2013-09-19 12:25:00,
2013-09-19 08:30:00,47.1,46.0,30.06,NE,45,0.0,0.0,96,0.00,,,0.00,,2013-09-19 12:30:00,
2013-09-19 08:35:00,47.7,46.6,30.06,NE,45,0.0,0.0,96,0.00,,,0.00,,2013-09-19 12:35:00,
2013-09-19 08:41:00,48.2,47.1,30.06,NE,45,0.0,0.0,96,0.00,,,0.00,,2013-09-19 12:41:00,
2013-09-19 08:46:00,48.9,47.8,30.06,NE,45,0.0,0.0,96,0.00,,,0.00,,2013-09-19 12:46:00,
2013-09-19 08:51:00,49.5,48.4,30.06,NE,45,0.0,0.0,96,0.00,,,0.00,,2013-09-19 12:51:00,
2013-09-19 08:57:00,50.2,49.1,30.06,NE,45,0.0,0.0,96,0.00,,,0.00,,2013-09-19 12:57:00,
2013-09-19 09:02:00,50.7,49.6,30.06,NE,45,0.0,0.0,96,0.00,,,0.00,,2013-09-19 13:02:00,
2013-09-19 09:07:00,51.3,49.9,30.06,West,270,0.0,0.9,95,0.00,,,0.00,,2013-09-19 13:07:00,
2013-09-19 09:13:00,52.2,50.8,30.06,SSW,202,0.0,0.0,95,0.00,,,0.00,,2013-09-19 13:13:00,
2013-09-19 09:18:00,52.7,51.0,30.06,WSW,247,1.1,0.0,94,0.00,,,0.00,,2013-09-19 13:18:00,
2013-09-19 09:24:00,53.4,51.7,30.06,WSW,247,0.0,0.0,94,0.00,,,0.00,,2013-09-19 13:24:00,
2013-09-19 09:29:00,54.0,51.7,30.06,WSW,247,0.0,0.9,92,0.00,,,0.00,,2013-09-19 13:29:00,
2013-09-19 09:35:00,54.7,52.1,30.06,West,270,0.0,1.1,91,0.00,,,0.00,,2013-09-19 13:35:00,
2013-09-19 09:41:00,55.2,52.3,30.06,ESE,112,0.0,0.0,90,0.00,,,0.00,,2013-09-19 13:41:00,
2013-09-19 09:46:00,55.9,52.4,30.06,West,270,1.3,1.3,88,0.00,,,0.00,,2013-09-19 13:46:00,
2013-09-19 09:52:00,56.5,52.3,30.06,WNW,292,2.2,3.4,86,0.00,,,0.00,,2013-09-19 13:52:00,
2013-09-19 09:57:00,57.0,52.2,30.06,SSE,157,0.0,0.0,84,0.00,,,0.00,,2013-09-19 13:57:00,
2013-09-19 10:02:00,57.6,52.1,30.06,NNW,337,0.0,0.0,82,0.00,,,0.00,,2013-09-19 14:02:00,
2013-09-19 10:07:00,58.1,52.3,30.06,West,270,0.9,2.0,81,0.00,,,0.00,,2013-09-19 14:07:00,
2013-09-19 10:12:00,58.5,51.6,30.06,SSW,202,0.9,0.0,78,0.00,,,0.00,,2013-09-19 14:12:00,
2013-09-19 10:18:00,58.6,50.4,30.06,WSW,247,0.0,0.0,74,0.00,,,0.00,,2013-09-19 14:18:00,
2013-09-19 10:24:00,59.2,51.3,30.06,WSW,247,2.0,2.2,75,0.00,,,0.00,,2013-09-19 14:24:00,
2013-09-19 10:29:00,59.7,51.4,30.06,WSW,247,0.0,1.3,74,0.00,,,0.00,,2013-09-19 14:29:00,
2013-09-19 10:34:00,59.7,51.0,30.06,WSW,247,1.3,2.0,73,0.00,,,0.00,,2013-09-19 14:34:00,
2013-09-19 10:40:00,60.1,51.0,30.03,ENE,67,0.0,0.0,72,0.00,,,0.00,,2013-09-19 14:40:00,
2013-09-19 10:45:00,60.6,51.5,30.03,West,270,1.6,1.6,72,0.00,,,0.00,,2013-09-19 14:45:00,
2013-09-19 10:50:00,61.2,51.3,30.03,SE,135,0.0,0.0,70,0.00,,,0.00,,2013-09-19 14:50:00,
2013-09-19 10:55:00,61.9,51.6,30.03,WNW,292,1.1,2.9,69,0.00,,,0.00,,2013-09-19 14:55:00,
2013-09-19 11:00:00,62.2,51.5,30.03,West,270,1.6,2.2,68,0.00,,,0.00,,2013-09-19 15:00:00,
2013-09-19 11:05:00,62.4,51.3,30.03,NW,315,0.0,0.0,67,0.00,,,0.00,,2013-09-19 15:05:00,
2013-09-19 11:10:00,62.8,51.7,30.03,WSW,247,1.1,2.0,67,0.00,,,0.00,,2013-09-19 15:10:00,
2013-09-19 11:16:00,63.5,51.9,30.03,SSE,157,0.0,0.0,66,0.00,,,0.00,,2013-09-19 15:16:00,
2013-09-19 11:21:00,63.9,52.3,30.03,West,270,1.3,1.3,66,0.00,,,0.00,,2013-09-19 15:21:00,
2013-09-19 11:26:00,64.0,52.0,30.03,SSE,157,1.3,1.3,65,0.00,,,0.00,,2013-09-19 15:26:00,
2013-09-19 11:31:00,64.2,51.4,30.03,NNE,22,1.6,2.5,63,0.00,,,0.00,,2013-09-19 15:31:00,
2013-09-19 11:37:00,64.6,51.7,30.03,NE,45,0.9,1.6,63,0.00,,,0.00,,2013-09-19 15:37:00,
2013-09-19 11:42:00,64.8,51.9,30.03,WNW,292,2.9,2.9,63,0.00,,,0.00,,2013-09-19 15:42:00,
2013-09-19 11:48:00,65.3,52.4,30.03,West,270,1.6,2.0,63,0.00,,,0.00,,2013-09-19 15:48:00,
2013-09-19 11:54:00,65.7,52.3,30.03,WSW,247,2.9,2.9,62,0.00,,,0.00,,2013-09-19 15:54:00,
2013-09-19 11:59:00,66.0,51.3,30.03,ENE,67,0.0,1.3,59,0.00,,,0.00,,2013-09-19 15:59:00,
2013-09-19 12:04:00,66.2,51.9,30.03,WSW,247,2.5,2.7,60,0.00,,,0.00,,2013-09-19 16:04:00,
2013-09-19 12:10:00,66.6,51.3,30.03,NNW,337,2.0,2.0,58,0.00,,,0.00,,2013-09-19 16:10:00,
2013-09-19 12:15:00,66.9,51.7,30.03,SSW,202,2.7,3.1,58,0.00,,,0.00,,2013-09-19 16:15:00,
2013-09-19 12:20:00,67.3,52.0,30.00,West,270,2.7,2.7,58,0.00,,,0.00,,2013-09-19 16:20:00,
2013-09-19 12:25:00,67.5,52.2,30.00,SSE,157,1.6,0.0,58,0.00,,,0.00,,2013-09-19 16:25:00,
2013-09-19 12:30:00,67.6,51.9,30.00,NNE,22,1.3,1.3,57,0.00,,,0.00,,2013-09-19 16:30:00,
2013-09-19 12:35:00,67.8,50.6,30.03,NE,45,1.6,2.7,54,0.00,,,0.00,,2013-09-19 16:35:00,
2013-09-19 12:41:00,68.4,51.1,30.03,ENE,67,0.0,0.0,54,0.00,,,0.00,,2013-09-19 16:41:00,
2013-09-19 12:46:00,68.5,50.2,30.03,SW,225,1.3,2.0,52,0.00,,,0.00,,2013-09-19 16:46:00,
2013-09-19 12:51:00,68.7,50.4,30.00,SW,225,2.0,0.0,52,0.00,,,0.00,,2013-09-19 16:51:00,
2013-09-19 12:56:00,68.9,49.5,30.00,SSE,157,1.3,0.0,50,0.00,,,0.00,,2013-09-19 16:56:00,
2013-09-19 13:01:00,69.3,50.9,30.00,WSW,247,2.0,2.5,52,0.00,,,0.00,,2013-09-19 17:01:00,
2013-09-19 13:06:00,69.6,51.7,30.00,WSW,247,1.6,0.0,53,0.00,,,0.00,,2013-09-19 17:06:00,
2013-09-19 13:11:00,69.8,49.8,30.00,East,90,1.6,1.6,49,0.00,,,0.00,,2013-09-19 17:11:00,
2013-09-19 13:16:00,70.0,47.1,30.00,NE,45,2.9,2.9,44,0.00,,,0.00,,2013-09-19 17:16:00,
2013-09-19 13:21:00,70.3,49.1,30.00,SSW,202,1.1,1.3,47,0.00,,,0.00,,2013-09-19 17:21:00,
2013-09-19 13:26:00,70.7,49.5,30.00,SW,225,1.3,2.2,47,0.00,,,0.00,,2013-09-19 17:26:00,
2013-09-19 13:32:00,70.9,50.2,30.00,South,180,1.3,1.3,48,0.00,,,0.00,,2013-09-19 17:32:00,
2013-09-19 13:38:00,71.4,49.5,30.00,ESE,112,0.0,0.0,46,0.00,,,0.00,,2013-09-19 17:38:00,
2013-09-19 13:43:00,71.6,49.1,30.00,SSW,202,0.9,0.9,45,0.00,,,0.00,,2013-09-19 17:43:00,
2013-09-19 13:48:00,72.0,50.0,30.00,SW,225,0.0,0.0,46,0.00,,,0.00,,2013-09-19 17:48:00,
2013-09-19 13:53:00,72.0,50.0,30.00,WNW,292,1.6,1.6,46,0.00,,,0.00,,2013-09-19 17:53:00,
2013-09-19 13:58:00,72.1,50.2,30.00,WNW,292,1.3,1.6,46,0.00,,,0.00,,2013-09-19 17:58:00,
2013-09-19 14:03:00,72.3,49.2,30.00,SSW,202,0.9,1.3,44,0.00,,,0.00,,2013-09-19 18:03:00,
2013-09-19 14:09:00,72.3,48.6,29.97,WSW,247,1.3,0.0,43,0.00,,,0.00,,2013-09-19 18:09:00,
2013-09-19 14:14:00,72.7,48.3,29.97,ENE,67,2.0,2.0,42,0.00,,,0.00,,2013-09-19 18:14:00,
2013-09-19 14:20:00,72.7,48.9,29.97,West,270,3.1,3.1,43,0.00,,,0.00,,2013-09-19 18:20:00,
2013-09-19 14:25:00,72.7,48.3,29.97,West,270,2.0,2.0,42,0.00,,,0.00,,2013-09-19 18:25:00,
2013-09-19 14:30:00,73.0,48.6,29.97,SSW,202,2.0,2.0,42,0.00,,,0.00,,2013-09-19 18:30:00,
2013-09-19 14:35:00,73.2,48.1,29.97,NNW,337,1.6,1.6,41,0.00,,,0.00,,2013-09-19 18:35:00,
2013-09-19 14:41:00,73.4,48.9,29.97,WNW,292,2.0,2.0,42,0.00,,,0.00,,2013-09-19 18:41:00,
2013-09-19 14:47:00,73.4,47.6,29.97,WNW,292,1.1,2.2,40,0.00,,,0.00,,2013-09-19 18:47:00,
2013-09-19 14:52:00,73.4,44.8,29.97,WSW,247,1.3,1.6,36,0.00,,,0.00,,2013-09-19 18:52:00,
2013-09-19 14:57:00,73.4,44.1,29.97,WNW,292,1.1,2.2,35,0.00,,,0.00,,2013-09-19 18:57:00,
2013-09-19 15:02:00,73.6,45.7,29.97,SSW,202,1.3,1.3,37,0.00,,,0.00,,2013-09-19 19:02:00,
2013-09-19 15:07:00,73.8,46.6,29.97,WSW,247,1.1,2.0,38,0.00,,,0.00,,2013-09-19 19:07:00,
2013-09-19 15:12:00,73.9,47.4,29.97,WSW,247,2.2,2.2,39,0.00,,,0.00,,2013-09-19 19:12:00,
2013-09-19 15:17:00,74.1,48.9,29.97,SE,135,1.3,1.3,41,0.00,,,0.00,,2013-09-19 19:17:00,
2013-09-19 15:22:00,74.1,47.6,29.97,SW,225,1.6,2.0,39,0.00,,,0.00,,2013-09-19 19:22:00,
2013-09-19 15:27:00,74.3,49.1,29.97,WSW,247,1.3,1.3,41,0.00,,,0.00,,2013-09-19 19:27:00,
2013-09-19 15:32:00,74.3,49.1,29.97,WNW,292,1.6,1.6,41,0.00,,,0.00,,2013-09-19 19:32:00,
2013-09-19 15:38:00,74.5,47.2,29.94,SW,225,1.1,2.2,38,0.00,,,0.00,,2013-09-19 19:38:00,
2013-09-19 15:43:00,74.5,48.6,29.94,West,270,1.6,2.5,40,0.00,,,0.00,,2013-09-19 19:43:00,
2013-09-19 15:48:00,74.5,49.2,29.94,ESE,112,0.9,0.0,41,0.00,,,0.00,,2013-09-19 19:48:00,
2013-09-19 15:53:00,74.3,48.4,29.94,NW,315,0.9,0.9,40,0.00,,,0.00,,2013-09-19 19:53:00,
2013-09-19 15:58:00,74.3,47.7,29.94,West,270,1.1,1.1,39,0.00,,,0.00,,2013-09-19 19:58:00,
2013-09-19 16:03:00,73.8,47.9,29.94,NW,315,2.2,2.2,40,0.00,,,0.00,,2013-09-19 20:03:00,
2013-09-19 16:09:00,73.4,44.8,29.94,West,270,0.0,0.0,36,0.00,,,0.00,,2013-09-19 20:09:00,
2013-09-19 16:14:00,73.2,45.4,29.94,SW,225,1.6,1.6,37,0.00,,,0.00,,2013-09-19 20:14:00,
2013-09-19 16:19:00,72.9,45.1,29.94,ENE,67,0.0,0.0,37,0.00,,,0.00,,2013-09-19 20:19:00,
2013-09-19 16:24:00,72.5,44.7,29.94,WSW,247,0.9,2.0,37,0.00,,,0.00,,2013-09-19 20:24:00,
2013-09-19 16:29:00,72.1,45.1,29.94,West,270,1.1,1.6,38,0.00,,,0.00,,2013-09-19 20:29:00,
2013-09-19 16:34:00,71.8,44.8,29.94,ENE,67,1.1,1.1,38,0.00,,,0.00,,2013-09-19 20:34:00,
2013-09-19 16:40:00,71.6,44.6,29.94,SSW,202,1.6,3.1,38,0.00,,,0.00,,2013-09-19 20:40:00,
2013-09-19 16:45:00,71.2,45.0,29.94,SSW,202,0.9,1.3,39,0.00,,,0.00,,2013-09-19 20:45:00,
2013-09-19 16:50:00,71.1,45.5,29.94,ESE,112,0.9,1.1,40,0.00,,,0.00,,2013-09-19 20:50:00,
2013-09-19 16:56:00,70.9,44.7,29.94,SW,225,1.3,1.3,39,0.00,,,0.00,,2013-09-19 20:56:00,
2013-09-19 17:01:00,70.9,44.0,29.94,WSW,247,0.0,0.0,38,0.00,,,0.00,,2013-09-19 21:01:00,
2013-09-19 17:07:00,70.7,44.5,29.94,WSW,247,1.6,1.6,39,0.00,,,0.00,,2013-09-19 21:07:00,
2013-09-19 17:12:00,70.7,43.8,29.94,SE,135,0.0,0.0,38,0.00,,,0.00,,2013-09-19 21:12:00,
2013-09-19 17:18:00,70.5,44.4,29.94,West,270,0.9,0.0,39,0.00,,,0.00,,2013-09-19 21:18:00,
2013-09-19 17:23:00,70.2,44.7,29.94,ESE,112,0.0,0.0,40,0.00,,,0.00,,2013-09-19 21:23:00,
2013-09-19 17:28:00,69.8,45.0,29.94,SSW,202,0.9,0.0,41,0.00,,,0.00,,2013-09-19 21:28:00,
2013-09-19 17:33:00,69.6,45.5,29.94,West,270,0.0,1.3,42,0.00,,,0.00,,2013-09-19 21:33:00,
2013-09-19 17:39:00,69.4,46.0,29.94,SW,225,0.9,0.0,43,0.00,,,0.00,,2013-09-19 21:39:00,
2013-09-19 17:44:00,69.3,45.8,29.94,SW,225,0.0,0.0,43,0.00,,,0.00,,2013-09-19 21:44:00,
2013-09-19 17:50:00,68.9,46.1,29.94,South,180,0.0,0.0,44,0.00,,,0.00,,2013-09-19 21:50:00,
2013-09-19 17:55:00,68.7,45.9,29.94,SW,225,0.0,0.0,44,0.00,,,0.00,,2013-09-19 21:55:00,
2013-09-19 18:00:00,68.5,46.3,29.94,SSE,157,0.0,0.0,45,0.00,,,0.00,,2013-09-19 22:00:00,
2013-09-19 18:05:00,68.2,46.0,29.94,SSW,202,0.9,0.0,45,0.00,,,0.00,,2013-09-19 22:05:00,
2013-09-19 18:11:00,67.8,46.8,29.94,ESE,112,0.0,0.0,47,0.00,,,0.00,,2013-09-19 22:11:00,
2013-09-19 18:16:00,67.5,47.1,29.94,ESE,112,0.0,0.0,48,0.00,,,0.00,,2013-09-19 22:16:00,
2013-09-19 18:21:00,66.9,47.1,29.94,ESE,112,0.0,0.0,49,0.00,,,0.00,,2013-09-19 22:21:00,
2013-09-19 18:26:00,66.4,47.7,29.94,ESE,112,0.0,0.0,51,0.00,,,0.00,,2013-09-19 22:26:00,
2013-09-19 18:31:00,66.0,47.4,29.94,ESE,112,0.0,0.0,51,0.00,,,0.00,,2013-09-19 22:31:00,
2013-09-19 18:37:00,65.7,48.1,29.94,ESE,112,0.0,0.0,53,0.00,,,0.00,,2013-09-19 22:37:00,
2013-09-19 18:42:00,65.1,47.6,29.94,East,90,0.0,0.0,53,0.00,,,0.00,,2013-09-19 22:42:00,
2013-09-19 18:47:00,64.8,47.7,29.94,East,90,0.0,0.0,54,0.00,,,0.00,,2013-09-19 22:47:00,
2013-09-19 18:52:00,64.4,47.9,29.94,East,90,0.0,0.0,55,0.00,,,0.00,,2013-09-19 22:52:00,
2013-09-19 18:57:00,63.9,47.4,29.94,East,90,0.0,0.0,55,0.00,,,0.00,,2013-09-19 22:57:00,
2013-09-19 19:02:00,63.5,47.5,29.94,East,90,0.0,0.0,56,0.00,,,0.00,,2013-09-19 23:02:00,
2013-09-19 19:07:00,63.1,47.2,29.94,East,90,0.0,0.0,56,0.00,,,0.00,,2013-09-19 23:07:00,
2013-09-19 19:12:00,63.0,47.5,29.94,East,90,1.3,1.3,57,0.00,,,0.00,,2013-09-19 23:12:00,
2013-09-19 19:17:00,62.6,47.2,29.94,East,90,1.1,1.1,57,0.00,,,0.00,,2013-09-19 23:17:00,
2013-09-19 19:22:00,62.4,47.4,29.94,East,90,1.3,2.0,58,0.00,,,0.00,,2013-09-19 23:22:00,
2013-09-19 19:27:00,62.1,47.1,29.94,East,90,0.0,0.0,58,0.00,,,0.00,,2013-09-19 23:27:00,
2013-09-19 19:33:00,61.7,46.8,29.94,East,90,0.0,0.0,58,0.00,,,0.00,,2013-09-19 23:33:00,
2013-09-19 19:39:00,61.3,46.9,29.94,East,90,0.0,0.0,59,0.00,,,0.00,,2013-09-19 23:39:00,
2013-09-19 19:44:00,61.0,47.0,29.94,East,90,0.0,0.0,60,0.00,,,0.00,,2013-09-19 23:44:00,
2013-09-19 19:49:00,60.6,47.1,29.94,East,90,0.0,0.0,61,0.00,,,0.00,,2013-09-19 23:49:00,
2013-09-19 19:54:00,60.4,47.4,29.94,East,90,0.0,0.0,62,0.00,,,0.00,,2013-09-19 23:54:00,
2013-09-19 19:59:00,60.1,47.0,29.94,East,90,0.0,0.0,62,0.00,,,0.00,,2013-09-19 23:59:00,
2013-09-19 20:04:00,59.7,47.1,29.94,East,90,0.0,0.0,63,0.00,,,0.00,,2013-09-20 00:04:00,
2013-09-19 20:10:00,59.4,47.2,29.94,East,90,0.0,0.0,64,0.00,,,0.00,,2013-09-20 00:10:00,
2013-09-19 20:15:00,59.0,46.8,29.94,East,90,0.0,0.0,64,0.00,,,0.00,,2013-09-20 00:15:00,
2013-09-19 20:21:00,58.6,46.9,29.94,East,90,0.0,0.0,65,0.00,,,0.00,,2013-09-20 00:21:00,
2013-09-19 20:26:00,58.5,46.7,29.94,East,90,0.0,0.0,65,0.00,,,0.00,,2013-09-20 00:26:00,
2013-09-19 20:31:00,58.1,46.8,29.94,East,90,0.0,0.0,66,0.00,,,0.00,,2013-09-20 00:31:00,
2013-09-19 20:37:00,57.9,46.6,29.97,East,90,0.0,0.0,66,0.00,,,0.00,,2013-09-20 00:37:00,
2013-09-19 20:42:00,57.6,46.7,29.97,East,90,0.0,0.0,67,0.00,,,0.00,,2013-09-20 00:42:00,
2013-09-19 20:47:00,57.4,46.5,29.97,East,90,0.0,0.0,67,0.00,,,0.00,,2013-09-20 00:47:00,
2013-09-19 20:52:00,57.2,46.3,29.97,East,90,0.0,0.0,67,0.00,,,0.00,,2013-09-20 00:52:00,
2013-09-19 20:57:00,57.0,46.6,29.97,East,90,0.0,0.0,68,0.00,,,0.00,,2013-09-20 00:57:00,
2013-09-19 21:02:00,56.8,46.4,29.97,East,90,0.0,0.0,68,0.00,,,0.00,,2013-09-20 01:02:00,
2013-09-19 21:07:00,56.7,46.6,29.97,East,90,0.0,0.0,69,0.00,,,0.00,,2013-09-20 01:07:00,
2013-09-19 21:12:00,56.5,46.8,29.97,East,90,0.0,0.0,70,0.00,,,0.00,,2013-09-20 01:12:00,
2013-09-19 21:18:00,56.3,47.0,29.97,East,90,0.0,0.0,71,0.00,,,0.00,,2013-09-20 01:18:00,
2013-09-19 21:23:00,56.3,47.4,29.97,East,90,0.0,0.0,72,0.00,,,0.00,,2013-09-20 01:23:00,
2013-09-19 21:28:00,55.9,47.0,29.97,East,90,0.0,0.0,72,0.00,,,0.00,,2013-09-20 01:28:00,
2013-09-19 21:33:00,55.9,47.0,29.97,East,90,0.0,0.0,72,0.00,,,0.00,,2013-09-20 01:33:00,
2013-09-19 21:39:00,55.6,47.1,29.97,East,90,0.0,0.0,73,0.00,,,0.00,,2013-09-20 01:39:00,
2013-09-19 21:44:00,55.4,47.3,29.97,East,90,0.0,0.0,74,0.00,,,0.00,,2013-09-20 01:44:00,
2013-09-19 21:49:00,55.2,47.4,29.97,East,90,0.0,0.0,75,0.00,,,0.00,,2013-09-20 01:49:00,
2013-09-19 21:54:00,55.0,47.3,29.97,East,90,0.0,0.0,75,0.00,,,0.00,,2013-09-20 01:54:00,
2013-09-19 21:59:00,54.9,47.4,29.97,East,90,0.0,0.0,76,0.00,,,0.00,,2013-09-20 01:59:00,
2013-09-19 22:04:00,54.7,47.3,29.97,East,90,0.0,0.0,76,0.00,,,0.00,,2013-09-20 02:04:00,
2013-09-19 22:10:00,54.5,47.4,29.97,East,90,0.0,0.0,77,0.00,,,0.00,,2013-09-20 02:10:00,
2013-09-19 22:16:00,54.5,47.4,29.97,ENE,67,0.0,0.0,77,0.00,,,0.00,,2013-09-20 02:16:00,
2013-09-19 22:21:00,54.3,47.6,29.97,ENE,67,2.0,2.0,78,0.00,,,0.00,,2013-09-20 02:21:00,
2013-09-19 22:26:00,54.1,47.8,29.97,ENE,67,1.3,1.3,79,0.00,,,0.00,,2013-09-20 02:26:00,
2013-09-19 22:31:00,54.1,48.1,29.97,ENE,67,1.3,2.5,80,0.00,,,0.00,,2013-09-20 02:31:00,
2013-09-19 22:37:00,54.0,48.3,29.94,ENE,67,1.1,1.6,81,0.00,,,0.00,,2013-09-20 02:37:00,
2013-09-19 22:42:00,53.8,48.1,29.94,ENE,67,1.3,1.3,81,0.00,,,0.00,,2013-09-20 02:42:00,
2013-09-19 22:47:00,53.6,48.2,29.94,ENE,67,1.3,1.3,82,0.00,,,0.00,,2013-09-20 02:47:00,
2013-09-19 22:52:00,53.6,48.2,29.94,ENE,67,1.3,1.3,82,0.00,,,0.00,,2013-09-20 02:52:00,
2013-09-19 22:57:00,53.4,48.4,29.94,ENE,67,1.3,1.3,83,0.00,,,0.00,,2013-09-20 02:57:00,
2013-09-19 23:02:00,53.2,48.2,29.94,ENE,67,1.3,1.3,83,0.00,,,0.00,,2013-09-20 03:02:00,
2013-09-19 23:07:00,53.1,48.4,29.94,ENE,67,1.3,1.3,84,0.00,,,0.00,,2013-09-20 03:07:00,
2013-09-19 23:13:00,52.9,48.2,29.94,ENE,67,0.0,0.0,84,0.00,,,0.00,,2013-09-20 03:13:00,
2013-09-19 23:20:00,52.7,48.0,29.94,ENE,67,1.6,1.6,84,0.00,,,0.00,,2013-09-20 03:20:00,
2013-09-19 23:25:00,52.7,48.0,29.94,ENE,67,2.0,2.0,84,0.00,,,0.00,,2013-09-20 03:25:00,
2013-09-19 23:30:00,52.5,48.1,29.94,ENE,67,2.0,2.5,85,0.00,,,0.00,,2013-09-20 03:30:00,
2013-09-19 23:35:00,52.3,48.0,29.94,ENE,67,1.3,1.6,85,0.00,,,0.00,,2013-09-20 03:35:00,
2013-09-19 23:41:00,52.2,47.8,29.94,ENE,67,0.0,0.0,85,0.00,,,0.00,,2013-09-20 03:41:00,
2013-09-19 23:47:00,52.2,48.1,29.94,ENE,67,0.0,0.0,86,0.00,,,0.00,,2013-09-20 03:47:00,
2013-09-19 23:53:00,52.0,47.9,29.94,ENE,67,1.1,1.3,86,0.00,,,0.00,,2013-09-20 03:53:00,
2013-09-19 23:59:00,51.8,47.7,29.94,ENE,67,0.0,1.3,86,0.00,,,0.00,,2013-09-20 03:59:00,